sensor_id;sensor_type;location;lat;lon;timestamp;P1;durP1;ratioP1;P2;durP2;ratioP2
75798;SDS011;65035;44.726;37.764;2023-02-15T00:00:39;2.75;;;1.02;;
75798;SDS011;65035;44.726;37.764;2023-02-15T00:01:42;2.15;;;0.40;;
75798;SDS011;65035;44.726;37.764;2023-02-15T00:02:45;1.98;;;0.65;;
75798;SDS011;65035;44.726;37.764;2023-02-15T00:03:49;2.72;;;0.35;;
75798;SDS011;65035;44.726;37.764;2023-02-15T00:04:52;2.10;;;0.60;;
75798;SDS011;65035;44.726;37.764;2023-02-15T00:05:56;1.95;;;0.40;;
75798;SDS011;65035;44.726;37.764;2023-02-15T00:07:00;2.40;;;0.75;;
75798;SDS011;65035;44.726;37.764;2023-02-15T00:08:02;1.63;;;0.80;;
75798;SDS011;65035;44.726;37.764;2023-02-15T00:09:05;1.80;;;0.40;;
75798;SDS011;65035;44.726;37.764;2023-02-15T00:10:08;2.78;;;2.47;;
75798;SDS011;65035;44.726;37.764;2023-02-15T00:11:15;1.85;;;0.80;;
75798;SDS011;65035;44.726;37.764;2023-02-15T00:12:39;2.30;;;0.73;;
75798;SDS011;65035;44.726;37.764;2023-02-15T00:13:42;2.20;;;0.60;;
75798;SDS011;65035;44.726;37.764;2023-02-15T00:14:45;1.50;;;0.50;;
75798;SDS011;65035;44.726;37.764;2023-02-15T00:15:49;2.72;;;1.13;;
75798;SDS011;65035;44.726;37.764;2023-02-15T00:16:52;1.85;;;0.57;;
75798;SDS011;65035;44.726;37.764;2023-02-15T00:17:57;2.20;;;0.85;;
75798;SDS011;65035;44.726;37.764;2023-02-15T00:18:59;2.05;;;0.60;;
75798;SDS011;65035;44.726;37.764;2023-02-15T00:20:08;2.08;;;0.57;;
75798;SDS011;65035;44.726;37.764;2023-02-15T00:21:21;1.77;;;0.50;;
75798;SDS011;65035;44.726;37.764;2023-02-15T00:22:24;1.80;;;0.50;;
75798;SDS011;65035;44.726;37.764;2023-02-15T00:23:27;2.28;;;0.57;;
75798;SDS011;65035;44.726;37.764;2023-02-15T00:24:30;1.98;;;1.77;;
75798;SDS011;65035;44.726;37.764;2023-02-15T00:25:33;1.73;;;0.60;;
75798;SDS011;65035;44.726;37.764;2023-02-15T00:26:37;2.10;;;0.47;;
75798;SDS011;65035;44.726;37.764;2023-02-15T00:27:41;2.38;;;0.73;;
75798;SDS011;65035;44.726;37.764;2023-02-15T00:28:44;1.35;;;0.50;;
75798;SDS011;65035;44.726;37.764;2023-02-15T00:29:47;2.15;;;1.95;;
75798;SDS011;65035;44.726;37.764;2023-02-15T00:30:50;2.22;;;2.03;;
75798;SDS011;65035;44.726;37.764;2023-02-15T00:31:53;1.95;;;1.75;;
75798;SDS011;65035;44.726;37.764;2023-02-15T00:32:58;2.00;;;0.50;;
75798;SDS011;65035;44.726;37.764;2023-02-15T00:34:10;2.10;;;0.60;;
75798;SDS011;65035;44.726;37.764;2023-02-15T00:35:15;1.80;;;0.40;;
75798;SDS011;65035;44.726;37.764;2023-02-15T00:36:18;2.03;;;0.40;;
75798;SDS011;65035;44.726;37.764;2023-02-15T00:37:23;2.10;;;0.52;;
75798;SDS011;65035;44.726;37.764;2023-02-15T00:38:26;1.60;;;0.40;;
75798;SDS011;65035;44.726;37.764;2023-02-15T00:39:30;1.83;;;0.60;;
75798;SDS011;65035;44.726;37.764;2023-02-15T00:40:33;1.90;;;0.70;;
75798;SDS011;65035;44.726;37.764;2023-02-15T00:41:36;2.05;;;0.60;;
75798;SDS011;65035;44.726;37.764;2023-02-15T00:42:39;1.33;;;0.43;;
75798;SDS011;65035;44.726;37.764;2023-02-15T00:43:42;2.30;;;0.52;;
75798;SDS011;65035;44.726;37.764;2023-02-15T00:44:45;1.90;;;0.68;;
75798;SDS011;65035;44.726;37.764;2023-02-15T00:45:48;1.50;;;0.68;;
75798;SDS011;65035;44.726;37.764;2023-02-15T00:46:52;2.33;;;0.68;;
75798;SDS011;65035;44.726;37.764;2023-02-15T00:47:55;1.63;;;0.60;;
75798;SDS011;65035;44.726;37.764;2023-02-15T00:48:58;2.13;;;0.70;;
75798;SDS011;65035;44.726;37.764;2023-02-15T00:50:01;1.40;;;0.40;;
75798;SDS011;65035;44.726;37.764;2023-02-15T00:51:05;2.03;;;0.60;;
75798;SDS011;65035;44.726;37.764;2023-02-15T00:52:08;1.73;;;0.55;;
75798;SDS011;65035;44.726;37.764;2023-02-15T00:53:11;2.45;;;0.73;;
75798;SDS011;65035;44.726;37.764;2023-02-15T00:54:14;1.52;;;0.55;;
75798;SDS011;65035;44.726;37.764;2023-02-15T00:55:17;1.60;;;0.50;;
75798;SDS011;65035;44.726;37.764;2023-02-15T00:56:20;1.70;;;0.38;;
75798;SDS011;65035;44.726;37.764;2023-02-15T00:57:23;1.98;;;0.55;;
75798;SDS011;65035;44.726;37.764;2023-02-15T00:58:26;1.90;;;0.60;;
75798;SDS011;65035;44.726;37.764;2023-02-15T00:59:29;1.60;;;0.30;;
75798;SDS011;65035;44.726;37.764;2023-02-15T01:00:32;1.55;;;0.28;;
75798;SDS011;65035;44.726;37.764;2023-02-15T01:01:35;2.30;;;2.03;;
75798;SDS011;65035;44.726;37.764;2023-02-15T01:02:37;1.63;;;0.50;;
75798;SDS011;65035;44.726;37.764;2023-02-15T01:03:40;2.13;;;1.48;;
75798;SDS011;65035;44.726;37.764;2023-02-15T01:04:43;1.55;;;0.57;;
75798;SDS011;65035;44.726;37.764;2023-02-15T01:05:47;1.92;;;0.68;;
75798;SDS011;65035;44.726;37.764;2023-02-15T01:06:50;2.45;;;0.30;;
75798;SDS011;65035;44.726;37.764;2023-02-15T01:07:53;1.90;;;0.50;;
75798;SDS011;65035;44.726;37.764;2023-02-15T01:08:56;1.85;;;0.40;;
75798;SDS011;65035;44.726;37.764;2023-02-15T01:09:59;2.08;;;1.83;;
75798;SDS011;65035;44.726;37.764;2023-02-15T01:11:12;1.58;;;0.40;;
75798;SDS011;65035;44.726;37.764;2023-02-15T01:12:16;2.38;;;0.60;;
75798;SDS011;65035;44.726;37.764;2023-02-15T01:13:21;1.25;;;0.40;;
75798;SDS011;65035;44.726;37.764;2023-02-15T01:14:24;2.08;;;1.98;;
75798;SDS011;65035;44.726;37.764;2023-02-15T01:15:27;1.67;;;1.27;;
75798;SDS011;65035;44.726;37.764;2023-02-15T01:16:30;2.67;;;0.88;;
75798;SDS011;65035;44.726;37.764;2023-02-15T01:17:33;1.38;;;0.45;;
75798;SDS011;65035;44.726;37.764;2023-02-15T01:18:38;1.88;;;0.70;;
75798;SDS011;65035;44.726;37.764;2023-02-15T01:19:42;2.13;;;0.20;;
75798;SDS011;65035;44.726;37.764;2023-02-15T01:20:45;1.42;;;0.50;;
75798;SDS011;65035;44.726;37.764;2023-02-15T01:21:49;1.50;;;0.55;;
75798;SDS011;65035;44.726;37.764;2023-02-15T01:22:52;1.20;;;0.40;;
75798;SDS011;65035;44.726;37.764;2023-02-15T01:23:55;2.72;;;0.57;;
75798;SDS011;65035;44.726;37.764;2023-02-15T01:24:58;1.90;;;0.40;;
75798;SDS011;65035;44.726;37.764;2023-02-15T01:28:37;1.05;;;0.30;;
75798;SDS011;65035;44.726;37.764;2023-02-15T01:29:40;1.83;;;1.63;;
75798;SDS011;65035;44.726;37.764;2023-02-15T01:30:42;1.52;;;0.70;;
75798;SDS011;65035;44.726;37.764;2023-02-15T01:31:45;1.20;;;0.60;;
75798;SDS011;65035;44.726;37.764;2023-02-15T01:32:48;1.65;;;0.60;;
75798;SDS011;65035;44.726;37.764;2023-02-15T01:33:51;1.98;;;0.40;;
75798;SDS011;65035;44.726;37.764;2023-02-15T01:34:54;1.70;;;0.30;;
75798;SDS011;65035;44.726;37.764;2023-02-15T01:35:57;1.73;;;0.32;;
75798;SDS011;65035;44.726;37.764;2023-02-15T01:37:01;1.88;;;0.60;;
75798;SDS011;65035;44.726;37.764;2023-02-15T01:38:03;0.85;;;0.15;;
75798;SDS011;65035;44.726;37.764;2023-02-15T01:39:06;1.13;;;0.38;;
75798;SDS011;65035;44.726;37.764;2023-02-15T01:40:14;1.50;;;0.60;;
75798;SDS011;65035;44.726;37.764;2023-02-15T01:41:18;1.70;;;0.40;;
75798;SDS011;65035;44.726;37.764;2023-02-15T01:42:29;1.63;;;0.60;;
75798;SDS011;65035;44.726;37.764;2023-02-15T01:43:39;1.38;;;0.22;;
75798;SDS011;65035;44.726;37.764;2023-02-15T01:45:54;1.27;;;0.40;;
75798;SDS011;65035;44.726;37.764;2023-02-15T01:46:56;1.38;;;0.55;;
75798;SDS011;65035;44.726;37.764;2023-02-15T01:50:36;2.63;;;2.13;;
75798;SDS011;65035;44.726;37.764;2023-02-15T01:52:52;1.10;;;0.38;;
75798;SDS011;65035;44.726;37.764;2023-02-15T01:54:01;1.52;;;0.50;;
75798;SDS011;65035;44.726;37.764;2023-02-15T01:55:10;1.60;;;0.30;;
75798;SDS011;65035;44.726;37.764;2023-02-15T01:56:18;1.60;;;0.22;;
75798;SDS011;65035;44.726;37.764;2023-02-15T01:57:25;1.58;;;0.50;;
75798;SDS011;65035;44.726;37.764;2023-02-15T01:58:30;1.50;;;0.63;;
75798;SDS011;65035;44.726;37.764;2023-02-15T01:59:34;1.20;;;0.50;;
75798;SDS011;65035;44.726;37.764;2023-02-15T02:00:39;1.85;;;0.68;;
75798;SDS011;65035;44.726;37.764;2023-02-15T02:02:46;2.20;;;1.92;;
75798;SDS011;65035;44.726;37.764;2023-02-15T02:04:08;1.50;;;0.30;;
75798;SDS011;65035;44.726;37.764;2023-02-15T02:05:14;2.35;;;1.48;;
75798;SDS011;65035;44.726;37.764;2023-02-15T02:06:18;1.60;;;0.45;;
75798;SDS011;65035;44.726;37.764;2023-02-15T02:07:25;1.83;;;0.47;;
75798;SDS011;65035;44.726;37.764;2023-02-15T02:08:34;1.98;;;1.73;;
75798;SDS011;65035;44.726;37.764;2023-02-15T02:09:37;1.50;;;0.25;;
75798;SDS011;65035;44.726;37.764;2023-02-15T02:10:40;1.55;;;0.30;;
75798;SDS011;65035;44.726;37.764;2023-02-15T02:11:43;1.20;;;0.32;;
75798;SDS011;65035;44.726;37.764;2023-02-15T02:12:49;1.73;;;0.50;;
75798;SDS011;65035;44.726;37.764;2023-02-15T02:13:55;1.90;;;0.47;;
75798;SDS011;65035;44.726;37.764;2023-02-15T02:16:07;1.42;;;0.43;;
75798;SDS011;65035;44.726;37.764;2023-02-15T02:18:45;1.48;;;0.50;;
75798;SDS011;65035;44.726;37.764;2023-02-15T02:25:25;1.30;;;0.40;;
75798;SDS011;65035;44.726;37.764;2023-02-15T02:26:51;1.40;;;0.40;;
75798;SDS011;65035;44.726;37.764;2023-02-15T02:35:01;1.95;;;0.40;;
75798;SDS011;65035;44.726;37.764;2023-02-15T02:42:49;2.38;;;2.10;;
75798;SDS011;65035;44.726;37.764;2023-02-15T02:45:32;1.85;;;0.20;;
75798;SDS011;65035;44.726;37.764;2023-02-15T02:46:54;1.58;;;0.30;;
75798;SDS011;65035;44.726;37.764;2023-02-15T02:48:09;1.23;;;0.22;;
75798;SDS011;65035;44.726;37.764;2023-02-15T02:49:27;1.75;;;1.35;;
75798;SDS011;65035;44.726;37.764;2023-02-15T02:50:41;1.60;;;0.57;;
75798;SDS011;65035;44.726;37.764;2023-02-15T02:51:44;1.75;;;0.35;;
75798;SDS011;65035;44.726;37.764;2023-02-15T02:52:48;1.75;;;0.60;;
75798;SDS011;65035;44.726;37.764;2023-02-15T02:53:56;1.55;;;0.30;;
75798;SDS011;65035;44.726;37.764;2023-02-15T02:55:48;1.70;;;0.70;;
75798;SDS011;65035;44.726;37.764;2023-02-15T02:56:41;2.17;;;0.38;;
75798;SDS011;65035;44.726;37.764;2023-02-15T02:57:52;1.90;;;1.40;;
75798;SDS011;65035;44.726;37.764;2023-02-15T02:59:02;1.63;;;0.63;;
75798;SDS011;65035;44.726;37.764;2023-02-15T03:00:11;1.60;;;0.50;;
75798;SDS011;65035;44.726;37.764;2023-02-15T03:01:18;2.22;;;0.50;;
75798;SDS011;65035;44.726;37.764;2023-02-15T03:02:37;1.40;;;0.20;;
75798;SDS011;65035;44.726;37.764;2023-02-15T03:03:45;1.30;;;0.50;;
75798;SDS011;65035;44.726;37.764;2023-02-15T03:04:53;2.20;;;2.00;;
75798;SDS011;65035;44.726;37.764;2023-02-15T03:06:10;3.10;;;0.77;;
75798;SDS011;65035;44.726;37.764;2023-02-15T03:07:20;1.20;;;0.70;;
75798;SDS011;65035;44.726;37.764;2023-02-15T03:08:34;1.83;;;0.63;;
75798;SDS011;65035;44.726;37.764;2023-02-15T03:09:43;1.92;;;0.73;;
75798;SDS011;65035;44.726;37.764;2023-02-15T03:10:52;1.35;;;0.57;;
75798;SDS011;65035;44.726;37.764;2023-02-15T03:11:57;2.20;;;1.88;;
75798;SDS011;65035;44.726;37.764;2023-02-15T03:13:00;1.63;;;0.52;;
75798;SDS011;65035;44.726;37.764;2023-02-15T03:14:14;2.20;;;0.95;;
75798;SDS011;65035;44.726;37.764;2023-02-15T03:15:25;1.63;;;0.57;;
75798;SDS011;65035;44.726;37.764;2023-02-15T03:16:53;2.33;;;0.82;;
75798;SDS011;65035;44.726;37.764;2023-02-15T03:17:57;1.48;;;0.40;;
75798;SDS011;65035;44.726;37.764;2023-02-15T03:19:08;1.80;;;0.40;;
75798;SDS011;65035;44.726;37.764;2023-02-15T03:21:34;1.63;;;0.20;;
75798;SDS011;65035;44.726;37.764;2023-02-15T03:22:46;1.88;;;0.88;;
75798;SDS011;65035;44.726;37.764;2023-02-15T03:23:53;1.98;;;0.30;;
75798;SDS011;65035;44.726;37.764;2023-02-15T03:25:09;1.20;;;0.30;;
75798;SDS011;65035;44.726;37.764;2023-02-15T03:26:17;1.95;;;0.68;;
75798;SDS011;65035;44.726;37.764;2023-02-15T03:27:22;1.60;;;0.47;;
75798;SDS011;65035;44.726;37.764;2023-02-15T03:28:31;1.65;;;0.60;;
75798;SDS011;65035;44.726;37.764;2023-02-15T03:29:38;1.40;;;0.20;;
75798;SDS011;65035;44.726;37.764;2023-02-15T03:30:42;2.33;;;1.65;;
75798;SDS011;65035;44.726;37.764;2023-02-15T03:31:49;2.08;;;1.75;;
75798;SDS011;65035;44.726;37.764;2023-02-15T03:32:58;1.33;;;0.40;;
75798;SDS011;65035;44.726;37.764;2023-02-15T03:34:03;1.80;;;0.10;;
75798;SDS011;65035;44.726;37.764;2023-02-15T03:35:08;1.75;;;0.60;;
75798;SDS011;65035;44.726;37.764;2023-02-15T03:36:22;1.30;;;0.30;;
75798;SDS011;65035;44.726;37.764;2023-02-15T03:39:33;1.65;;;0.40;;
75798;SDS011;65035;44.726;37.764;2023-02-15T03:40:37;4.07;;;0.32;;
75798;SDS011;65035;44.726;37.764;2023-02-15T03:42:07;2.83;;;0.40;;
75798;SDS011;65035;44.726;37.764;2023-02-15T03:43:17;4.00;;;0.50;;
75798;SDS011;65035;44.726;37.764;2023-02-15T03:44:29;3.95;;;0.45;;
75798;SDS011;65035;44.726;37.764;2023-02-15T03:45:33;2.13;;;1.67;;
75798;SDS011;65035;44.726;37.764;2023-02-15T03:46:43;2.55;;;0.32;;
75798;SDS011;65035;44.726;37.764;2023-02-15T03:47:51;1.65;;;0.30;;
75798;SDS011;65035;44.726;37.764;2023-02-15T03:49:10;3.50;;;0.70;;
75798;SDS011;65035;44.726;37.764;2023-02-15T03:50:36;1.73;;;0.63;;
75798;SDS011;65035;44.726;37.764;2023-02-15T03:51:59;1.83;;;0.63;;
75798;SDS011;65035;44.726;37.764;2023-02-15T03:53:06;2.42;;;0.50;;
75798;SDS011;65035;44.726;37.764;2023-02-15T03:54:13;3.90;;;0.52;;
75798;SDS011;65035;44.726;37.764;2023-02-15T03:55:40;2.05;;;0.32;;
75798;SDS011;65035;44.726;37.764;2023-02-15T03:56:43;2.80;;;0.45;;
75798;SDS011;65035;44.726;37.764;2023-02-15T03:58:06;2.45;;;0.63;;
75798;SDS011;65035;44.726;37.764;2023-02-15T03:59:28;1.70;;;0.30;;
75798;SDS011;65035;44.726;37.764;2023-02-15T04:00:50;2.30;;;1.92;;
75798;SDS011;65035;44.726;37.764;2023-02-15T04:02:21;1.63;;;0.43;;
75798;SDS011;65035;44.726;37.764;2023-02-15T04:04:42;2.38;;;0.73;;
75798;SDS011;65035;44.726;37.764;2023-02-15T04:05:48;1.30;;;0.28;;
75798;SDS011;65035;44.726;37.764;2023-02-15T04:06:51;2.20;;;0.70;;
75798;SDS011;65035;44.726;37.764;2023-02-15T04:07:54;1.75;;;0.50;;
75798;SDS011;65035;44.726;37.764;2023-02-15T04:08:57;2.47;;;0.70;;
75798;SDS011;65035;44.726;37.764;2023-02-15T04:10:18;2.97;;;0.52;;
75798;SDS011;65035;44.726;37.764;2023-02-15T04:11:39;1.83;;;0.40;;
75798;SDS011;65035;44.726;37.764;2023-02-15T04:12:42;5.10;;;1.15;;
75798;SDS011;65035;44.726;37.764;2023-02-15T04:13:45;5.93;;;2.03;;
75798;SDS011;65035;44.726;37.764;2023-02-15T04:14:47;4.55;;;1.23;;
75798;SDS011;65035;44.726;37.764;2023-02-15T04:16:12;5.88;;;1.30;;
75798;SDS011;65035;44.726;37.764;2023-02-15T04:17:15;7.88;;;1.67;;
75798;SDS011;65035;44.726;37.764;2023-02-15T04:18:17;7.47;;;1.52;;
75798;SDS011;65035;44.726;37.764;2023-02-15T04:19:20;8.65;;;2.20;;
75798;SDS011;65035;44.726;37.764;2023-02-15T04:20:45;13.25;;;1.75;;
75798;SDS011;65035;44.726;37.764;2023-02-15T04:22:07;12.18;;;2.28;;
75798;SDS011;65035;44.726;37.764;2023-02-15T04:23:28;17.17;;;3.70;;
75798;SDS011;65035;44.726;37.764;2023-02-15T04:24:49;20.77;;;3.35;;
75798;SDS011;65035;44.726;37.764;2023-02-15T04:26:10;17.05;;;2.88;;
75798;SDS011;65035;44.726;37.764;2023-02-15T04:27:13;14.43;;;4.07;;
75798;SDS011;65035;44.726;37.764;2023-02-15T04:28:16;18.75;;;3.45;;
75798;SDS011;65035;44.726;37.764;2023-02-15T04:29:20;16.38;;;3.15;;
75798;SDS011;65035;44.726;37.764;2023-02-15T04:30:24;13.75;;;3.58;;
75798;SDS011;65035;44.726;37.764;2023-02-15T04:31:27;16.55;;;3.30;;
75798;SDS011;65035;44.726;37.764;2023-02-15T04:32:30;16.90;;;3.30;;
75798;SDS011;65035;44.726;37.764;2023-02-15T04:33:33;17.30;;;3.08;;
75798;SDS011;65035;44.726;37.764;2023-02-15T04:34:37;14.18;;;2.90;;
75798;SDS011;65035;44.726;37.764;2023-02-15T04:35:40;14.23;;;5.07;;
75798;SDS011;65035;44.726;37.764;2023-02-15T04:36:47;17.77;;;3.58;;
75798;SDS011;65035;44.726;37.764;2023-02-15T04:37:50;14.55;;;4.30;;
75798;SDS011;65035;44.726;37.764;2023-02-15T04:38:53;14.07;;;2.90;;
75798;SDS011;65035;44.726;37.764;2023-02-15T04:39:55;10.23;;;2.60;;
75798;SDS011;65035;44.726;37.764;2023-02-15T04:41:00;16.25;;;4.13;;
75798;SDS011;65035;44.726;37.764;2023-02-15T04:42:03;13.48;;;2.22;;
75798;SDS011;65035;44.726;37.764;2023-02-15T04:43:06;13.30;;;2.88;;
75798;SDS011;65035;44.726;37.764;2023-02-15T04:44:09;12.38;;;2.17;;
75798;SDS011;65035;44.726;37.764;2023-02-15T04:46:15;13.10;;;2.47;;
75798;SDS011;65035;44.726;37.764;2023-02-15T04:47:18;11.73;;;2.42;;
75798;SDS011;65035;44.726;37.764;2023-02-15T04:48:22;11.25;;;2.70;;
75798;SDS011;65035;44.726;37.764;2023-02-15T04:49:25;12.30;;;2.72;;
75798;SDS011;65035;44.726;37.764;2023-02-15T04:50:28;11.95;;;2.63;;
75798;SDS011;65035;44.726;37.764;2023-02-15T04:51:30;13.98;;;2.40;;
75798;SDS011;65035;44.726;37.764;2023-02-15T04:52:33;10.07;;;2.38;;
75798;SDS011;65035;44.726;37.764;2023-02-15T04:53:36;13.88;;;3.08;;
75798;SDS011;65035;44.726;37.764;2023-02-15T04:54:39;11.48;;;3.67;;
75798;SDS011;65035;44.726;37.764;2023-02-15T04:55:42;11.63;;;2.88;;
75798;SDS011;65035;44.726;37.764;2023-02-15T04:56:45;9.98;;;1.48;;
75798;SDS011;65035;44.726;37.764;2023-02-15T04:57:47;12.13;;;2.55;;
75798;SDS011;65035;44.726;37.764;2023-02-15T04:58:50;13.70;;;1.88;;
75798;SDS011;65035;44.726;37.764;2023-02-15T04:59:53;9.25;;;2.08;;
75798;SDS011;65035;44.726;37.764;2023-02-15T05:00:56;10.30;;;2.20;;
75798;SDS011;65035;44.726;37.764;2023-02-15T05:02:00;6.75;;;1.35;;
75798;SDS011;65035;44.726;37.764;2023-02-15T05:03:03;8.40;;;3.08;;
75798;SDS011;65035;44.726;37.764;2023-02-15T05:04:06;9.02;;;2.15;;
75798;SDS011;65035;44.726;37.764;2023-02-15T05:05:08;12.38;;;2.50;;
75798;SDS011;65035;44.726;37.764;2023-02-15T05:06:15;7.20;;;1.85;;
75798;SDS011;65035;44.726;37.764;2023-02-15T05:07:17;8.05;;;2.22;;
75798;SDS011;65035;44.726;37.764;2023-02-15T05:08:22;10.13;;;1.88;;
75798;SDS011;65035;44.726;37.764;2023-02-15T05:09:25;9.13;;;1.85;;
75798;SDS011;65035;44.726;37.764;2023-02-15T05:10:28;10.18;;;3.70;;
75798;SDS011;65035;44.726;37.764;2023-02-15T05:11:30;10.38;;;1.52;;
75798;SDS011;65035;44.726;37.764;2023-02-15T05:12:33;9.75;;;3.17;;
75798;SDS011;65035;44.726;37.764;2023-02-15T05:13:36;9.20;;;1.83;;
75798;SDS011;65035;44.726;37.764;2023-02-15T05:14:39;8.75;;;1.95;;
75798;SDS011;65035;44.726;37.764;2023-02-15T05:15:46;7.55;;;2.05;;
75798;SDS011;65035;44.726;37.764;2023-02-15T05:16:53;6.95;;;1.67;;
75798;SDS011;65035;44.726;37.764;2023-02-15T05:17:56;7.35;;;1.48;;
75798;SDS011;65035;44.726;37.764;2023-02-15T05:18:59;7.15;;;1.40;;
75798;SDS011;65035;44.726;37.764;2023-02-15T05:20:02;9.95;;;1.75;;
75798;SDS011;65035;44.726;37.764;2023-02-15T05:21:05;8.23;;;1.80;;
75798;SDS011;65035;44.726;37.764;2023-02-15T05:22:08;6.70;;;1.33;;
75798;SDS011;65035;44.726;37.764;2023-02-15T05:23:11;6.80;;;1.67;;
75798;SDS011;65035;44.726;37.764;2023-02-15T05:24:14;6.28;;;0.90;;
75798;SDS011;65035;44.726;37.764;2023-02-15T05:25:36;8.05;;;1.52;;
75798;SDS011;65035;44.726;37.764;2023-02-15T05:26:58;8.00;;;1.80;;
75798;SDS011;65035;44.726;37.764;2023-02-15T05:28:19;7.25;;;1.10;;
75798;SDS011;65035;44.726;37.764;2023-02-15T05:29:22;6.90;;;2.85;;
75798;SDS011;65035;44.726;37.764;2023-02-15T05:30:25;5.55;;;1.10;;
75798;SDS011;65035;44.726;37.764;2023-02-15T05:31:28;6.65;;;3.65;;
75798;SDS011;65035;44.726;37.764;2023-02-15T05:32:31;7.28;;;1.42;;
75798;SDS011;65035;44.726;37.764;2023-02-15T05:33:34;6.85;;;1.23;;
75798;SDS011;65035;44.726;37.764;2023-02-15T05:35:40;7.85;;;0.98;;
75798;SDS011;65035;44.726;37.764;2023-02-15T05:36:43;7.90;;;1.27;;
75798;SDS011;65035;44.726;37.764;2023-02-15T05:37:46;5.60;;;1.13;;
75798;SDS011;65035;44.726;37.764;2023-02-15T05:38:49;5.40;;;1.17;;
75798;SDS011;65035;44.726;37.764;2023-02-15T05:39:52;5.75;;;1.13;;
75798;SDS011;65035;44.726;37.764;2023-02-15T05:40:55;7.35;;;0.90;;
75798;SDS011;65035;44.726;37.764;2023-02-15T05:41:59;6.30;;;1.13;;
75798;SDS011;65035;44.726;37.764;2023-02-15T05:43:02;6.35;;;1.05;;
75798;SDS011;65035;44.726;37.764;2023-02-15T05:44:05;7.32;;;1.27;;
75798;SDS011;65035;44.726;37.764;2023-02-15T05:45:08;6.88;;;1.45;;
75798;SDS011;65035;44.726;37.764;2023-02-15T05:46:12;4.45;;;1.05;;
75798;SDS011;65035;44.726;37.764;2023-02-15T05:47:15;3.28;;;0.63;;
75798;SDS011;65035;44.726;37.764;2023-02-15T05:48:18;5.97;;;0.95;;
75798;SDS011;65035;44.726;37.764;2023-02-15T05:49:22;4.75;;;0.90;;
75798;SDS011;65035;44.726;37.764;2023-02-15T05:50:25;5.43;;;1.27;;
75798;SDS011;65035;44.726;37.764;2023-02-15T05:51:28;4.88;;;0.73;;
75798;SDS011;65035;44.726;37.764;2023-02-15T05:52:31;5.28;;;0.75;;
75798;SDS011;65035;44.726;37.764;2023-02-15T05:53:35;4.72;;;1.92;;
75798;SDS011;65035;44.726;37.764;2023-02-15T05:54:39;4.00;;;0.90;;
75798;SDS011;65035;44.726;37.764;2023-02-15T05:55:42;4.40;;;0.88;;
75798;SDS011;65035;44.726;37.764;2023-02-15T05:56:45;4.32;;;0.80;;
75798;SDS011;65035;44.726;37.764;2023-02-15T05:57:48;4.88;;;0.80;;
75798;SDS011;65035;44.726;37.764;2023-02-15T05:58:52;5.90;;;2.42;;
75798;SDS011;65035;44.726;37.764;2023-02-15T05:59:56;4.70;;;1.65;;
75798;SDS011;65035;44.726;37.764;2023-02-15T06:00:59;4.10;;;0.75;;
75798;SDS011;65035;44.726;37.764;2023-02-15T06:03:11;5.15;;;1.45;;
75798;SDS011;65035;44.726;37.764;2023-02-15T06:04:14;5.15;;;0.73;;
75798;SDS011;65035;44.726;37.764;2023-02-15T06:05:17;5.70;;;1.00;;
75798;SDS011;65035;44.726;37.764;2023-02-15T06:06:20;4.05;;;1.20;;
75798;SDS011;65035;44.726;37.764;2023-02-15T06:07:23;4.57;;;0.93;;
75798;SDS011;65035;44.726;37.764;2023-02-15T06:08:26;4.75;;;0.60;;
75798;SDS011;65035;44.726;37.764;2023-02-15T06:09:29;3.92;;;0.63;;
75798;SDS011;65035;44.726;37.764;2023-02-15T06:10:32;4.60;;;0.80;;
75798;SDS011;65035;44.726;37.764;2023-02-15T06:11:35;3.35;;;0.85;;
75798;SDS011;65035;44.726;37.764;2023-02-15T06:12:38;4.82;;;2.15;;
75798;SDS011;65035;44.726;37.764;2023-02-15T06:13:41;5.07;;;1.90;;
75798;SDS011;65035;44.726;37.764;2023-02-15T06:14:43;3.97;;;0.60;;
75798;SDS011;65035;44.726;37.764;2023-02-15T06:15:46;4.85;;;0.60;;
75798;SDS011;65035;44.726;37.764;2023-02-15T06:16:49;3.13;;;0.60;;
75798;SDS011;65035;44.726;37.764;2023-02-15T06:17:53;3.08;;;0.60;;
75798;SDS011;65035;44.726;37.764;2023-02-15T06:18:55;3.30;;;0.65;;
75798;SDS011;65035;44.726;37.764;2023-02-15T06:19:58;4.00;;;0.77;;
75798;SDS011;65035;44.726;37.764;2023-02-15T06:21:01;3.88;;;2.63;;
75798;SDS011;65035;44.726;37.764;2023-02-15T06:22:04;2.65;;;0.55;;
75798;SDS011;65035;44.726;37.764;2023-02-15T06:23:08;3.65;;;0.77;;
75798;SDS011;65035;44.726;37.764;2023-02-15T06:24:11;3.55;;;0.52;;
75798;SDS011;65035;44.726;37.764;2023-02-15T06:25:14;5.15;;;0.30;;
75798;SDS011;65035;44.726;37.764;2023-02-15T06:26:17;3.38;;;0.60;;
75798;SDS011;65035;44.726;37.764;2023-02-15T06:27:20;3.45;;;1.63;;
75798;SDS011;65035;44.726;37.764;2023-02-15T06:28:23;3.40;;;0.88;;
75798;SDS011;65035;44.726;37.764;2023-02-15T06:29:27;3.58;;;2.10;;
75798;SDS011;65035;44.726;37.764;2023-02-15T06:30:30;3.17;;;0.43;;
75798;SDS011;65035;44.726;37.764;2023-02-15T06:31:33;3.55;;;1.95;;
75798;SDS011;65035;44.726;37.764;2023-02-15T06:32:36;4.35;;;0.60;;
75798;SDS011;65035;44.726;37.764;2023-02-15T06:33:39;1.92;;;0.50;;
75798;SDS011;65035;44.726;37.764;2023-02-15T06:34:42;3.22;;;1.38;;
75798;SDS011;65035;44.726;37.764;2023-02-15T06:35:45;3.08;;;0.35;;
75798;SDS011;65035;44.726;37.764;2023-02-15T06:36:48;3.80;;;0.47;;
75798;SDS011;65035;44.726;37.764;2023-02-15T06:37:51;3.53;;;0.50;;
75798;SDS011;65035;44.726;37.764;2023-02-15T06:38:54;1.75;;;0.40;;
75798;SDS011;65035;44.726;37.764;2023-02-15T06:39:57;2.15;;;0.43;;
75798;SDS011;65035;44.726;37.764;2023-02-15T06:41:02;3.25;;;0.40;;
75798;SDS011;65035;44.726;37.764;2023-02-15T06:42:05;3.08;;;0.30;;
75798;SDS011;65035;44.726;37.764;2023-02-15T06:43:08;3.83;;;0.40;;
75798;SDS011;65035;44.726;37.764;2023-02-15T06:44:11;3.75;;;1.40;;
75798;SDS011;65035;44.726;37.764;2023-02-15T06:45:14;3.53;;;2.50;;
75798;SDS011;65035;44.726;37.764;2023-02-15T06:46:16;2.35;;;0.20;;
75798;SDS011;65035;44.726;37.764;2023-02-15T06:47:19;2.13;;;1.42;;
75798;SDS011;65035;44.726;37.764;2023-02-15T06:48:22;2.33;;;0.40;;
75798;SDS011;65035;44.726;37.764;2023-02-15T06:49:25;3.55;;;0.52;;
75798;SDS011;65035;44.726;37.764;2023-02-15T06:50:28;2.85;;;0.32;;
75798;SDS011;65035;44.726;37.764;2023-02-15T06:51:31;3.33;;;1.35;;
75798;SDS011;65035;44.726;37.764;2023-02-15T06:52:36;3.10;;;1.40;;
75798;SDS011;65035;44.726;37.764;2023-02-15T06:53:39;3.53;;;2.00;;
75798;SDS011;65035;44.726;37.764;2023-02-15T06:54:44;2.72;;;0.28;;
75798;SDS011;65035;44.726;37.764;2023-02-15T06:55:47;2.00;;;0.25;;
75798;SDS011;65035;44.726;37.764;2023-02-15T06:56:50;3.33;;;1.77;;
75798;SDS011;65035;44.726;37.764;2023-02-15T06:57:53;3.55;;;0.47;;
75798;SDS011;65035;44.726;37.764;2023-02-15T06:58:56;4.32;;;0.52;;
75798;SDS011;65035;44.726;37.764;2023-02-15T06:59:59;2.67;;;0.47;;
75798;SDS011;65035;44.726;37.764;2023-02-15T07:01:05;2.50;;;0.35;;
75798;SDS011;65035;44.726;37.764;2023-02-15T07:02:10;3.28;;;0.40;;
75798;SDS011;65035;44.726;37.764;2023-02-15T07:03:14;1.85;;;0.30;;
75798;SDS011;65035;44.726;37.764;2023-02-15T07:04:17;2.50;;;0.38;;
75798;SDS011;65035;44.726;37.764;2023-02-15T07:05:20;1.98;;;0.35;;
75798;SDS011;65035;44.726;37.764;2023-02-15T07:06:23;2.08;;;0.25;;
75798;SDS011;65035;44.726;37.764;2023-02-15T07:07:26;2.70;;;0.40;;
75798;SDS011;65035;44.726;37.764;2023-02-15T07:08:29;2.03;;;0.43;;
75798;SDS011;65035;44.726;37.764;2023-02-15T07:09:32;2.85;;;0.50;;
75798;SDS011;65035;44.726;37.764;2023-02-15T07:10:34;2.60;;;0.63;;